createdAt,value
2022-08-17T00:00:33.322Z,18.20
2022-08-17T00:05:51.902Z,18.10
2022-08-17T00:10:56.329Z,18.10
2022-08-17T00:16:03.461Z,18.00
2022-08-17T00:21:10.211Z,18.00
2022-08-17T00:26:14.428Z,18.00
2022-08-17T00:31:17.641Z,18.00
2022-08-17T00:36:21.310Z,17.90
2022-08-17T00:41:27.940Z,17.90
2022-08-17T00:46:41.015Z,17.90
2022-08-17T00:51:53.341Z,17.80
2022-08-17T00:57:01.301Z,17.80
2022-08-17T01:02:05.560Z,17.80
2022-08-17T01:07:11.200Z,17.70
2022-08-17T01:12:14.861Z,17.80
2022-08-17T01:17:18.401Z,17.70
2022-08-17T01:22:25.520Z,17.70
2022-08-17T01:27:30.551Z,17.60
2022-08-17T01:32:33.540Z,17.60
2022-08-17T01:37:41.744Z,17.60
2022-08-17T01:43:00.625Z,17.60
2022-08-17T01:48:04.208Z,17.50
2022-08-17T01:53:23.122Z,17.50
2022-08-17T01:58:26.362Z,17.40
2022-08-17T02:03:30.742Z,17.20
2022-08-17T02:08:39.191Z,17.20
2022-08-17T02:14:03.383Z,17.20
2022-08-17T02:19:09.460Z,17.20
2022-08-17T02:24:17.964Z,17.20
2022-08-17T02:29:41.300Z,17.20
2022-08-17T02:34:44.549Z,17.20
2022-08-17T02:39:48.457Z,17.10
2022-08-17T02:44:51.761Z,17.10
2022-08-17T02:49:56.058Z,17.20
2022-08-17T02:54:59.101Z,17.10
2022-08-17T03:00:02.360Z,17.10
2022-08-17T03:05:06.561Z,17.10
2022-08-17T03:10:11.084Z,17.10
2022-08-17T03:15:20.361Z,17.00
2022-08-17T03:20:25.361Z,17.00
2022-08-17T03:25:31.420Z,16.90
2022-08-17T03:30:38.129Z,16.90
2022-08-17T03:35:42.360Z,16.90
2022-08-17T03:40:57.313Z,16.80
2022-08-17T03:46:34.285Z,16.90
2022-08-17T03:51:56.502Z,16.90
2022-08-17T03:57:10.783Z,16.80
2022-08-17T04:02:21.515Z,16.90
2022-08-17T04:07:28.706Z,16.90
2022-08-17T04:12:51.522Z,16.90
2022-08-17T04:17:55.521Z,17.00
2022-08-17T04:23:02.762Z,17.00
2022-08-17T04:28:07.662Z,17.10
2022-08-17T04:33:22.381Z,17.20
2022-08-17T04:38:33.921Z,17.30
2022-08-17T04:43:39.071Z,17.40
2022-08-17T04:48:45.020Z,17.60
2022-08-17T04:53:54.441Z,17.70
2022-08-17T04:59:01.644Z,17.80
2022-08-17T05:04:19.951Z,17.90
2022-08-17T05:09:32.541Z,18.00
2022-08-17T05:14:35.723Z,18.20
2022-08-17T05:19:38.883Z,18.30
2022-08-17T05:24:43.551Z,18.40
2022-08-17T05:29:57.086Z,18.50
2022-08-17T05:35:00.992Z,18.60
2022-08-17T05:40:04.798Z,18.80
2022-08-17T05:45:08.904Z,18.90
2022-08-17T05:50:25.760Z,19.00
2022-08-17T05:55:49.443Z,19.20
2022-08-17T06:01:02.018Z,19.40
2022-08-17T06:06:20.427Z,19.50
2022-08-17T06:11:40.209Z,19.70
2022-08-17T06:16:48.563Z,19.80
2022-08-17T06:21:54.422Z,19.90
2022-08-17T06:27:06.941Z,20.10
2022-08-17T06:32:12.967Z,20.20
2022-08-17T06:37:37.823Z,20.40
2022-08-17T06:43:06.874Z,20.60
2022-08-17T06:48:31.622Z,20.80
2022-08-17T06:54:00.128Z,21.10
2022-08-17T06:59:04.105Z,21.40
2022-08-17T07:04:24.124Z,21.60
2022-08-17T07:09:38.198Z,21.90
2022-08-17T07:14:48.347Z,22.10
2022-08-17T07:19:57.442Z,22.40
2022-08-17T07:25:08.515Z,22.70
2022-08-17T07:30:22.416Z,23.10
2022-08-17T07:35:50.609Z,23.50
2022-08-17T07:41:03.081Z,23.80
2022-08-17T07:46:38.763Z,24.10
2022-08-17T07:51:57.687Z,24.40
2022-08-17T07:57:15.146Z,24.80
2022-08-17T08:02:31.881Z,25.00
2022-08-17T08:07:39.461Z,25.20
2022-08-17T08:12:43.323Z,25.30
2022-08-17T08:17:53.433Z,25.60
2022-08-17T08:23:12.571Z,25.80
2022-08-17T08:28:30.247Z,26.10
2022-08-17T08:34:53.207Z,26.30
2022-08-17T08:39:52.658Z,26.50
2022-08-17T08:45:08.214Z,26.80
2022-08-17T08:50:37.620Z,26.90
2022-08-17T08:55:56.903Z,27.10
2022-08-17T09:01:03.757Z,27.40
2022-08-17T09:06:32.228Z,27.50
2022-08-17T09:12:09.610Z,27.60
2022-08-17T09:17:33.802Z,27.70
2022-08-17T09:22:43.666Z,27.80
2022-08-17T09:28:07.311Z,27.90
2022-08-17T09:33:15.086Z,28.10
2022-08-17T09:38:53.327Z,28.20
2022-08-17T09:44:23.210Z,28.30
2022-08-17T09:49:36.027Z,28.50
2022-08-17T09:54:41.802Z,28.70
2022-08-17T10:00:17.363Z,28.80
2022-08-17T10:05:32.922Z,29.00
2022-08-17T10:11:06.045Z,29.10
2022-08-17T10:16:29.888Z,29.10
2022-08-17T10:22:01.429Z,29.30
2022-08-17T10:27:22.066Z,29.40
2022-08-17T10:32:44.811Z,29.70
2022-08-17T10:37:50.779Z,29.90
2022-08-17T10:43:23.307Z,30.10
2022-08-17T10:48:33.052Z,30.10
2022-08-17T10:53:36.221Z,30.30
2022-08-17T10:58:55.150Z,30.40
2022-08-17T11:04:04.121Z,30.50
2022-08-17T11:09:24.441Z,30.60
2022-08-17T11:14:48.512Z,30.80
2022-08-17T11:20:38.325Z,30.70
2022-08-17T11:25:47.609Z,30.70
2022-08-17T11:30:57.448Z,30.80
2022-08-17T11:36:15.001Z,30.70
2022-08-17T11:41:28.073Z,31.10
2022-08-17T11:46:58.680Z,31.40
2022-08-17T11:52:01.813Z,31.60
2022-08-17T11:57:26.603Z,31.60
2022-08-17T12:02:32.190Z,31.60
2022-08-17T12:07:43.575Z,31.80
2022-08-17T12:12:50.763Z,32.00
2022-08-17T12:17:58.183Z,32.00
2022-08-17T12:23:07.636Z,31.80
2022-08-17T12:28:47.961Z,31.90
2022-08-17T12:33:52.361Z,31.80
2022-08-17T12:39:13.736Z,31.80
2022-08-17T12:44:22.008Z,32.00
2022-08-17T12:49:31.956Z,31.90
2022-08-17T12:54:57.629Z,32.20
2022-08-17T13:00:18.291Z,32.60
2022-08-17T13:05:28.121Z,32.40
2022-08-17T13:10:34.634Z,32.30
2022-08-17T13:15:43.228Z,32.20
2022-08-17T13:20:57.980Z,32.20
2022-08-17T13:26:16.991Z,32.20
2022-08-17T13:31:30.488Z,32.10
2022-08-17T13:36:34.020Z,32.30
2022-08-17T13:41:38.913Z,32.60
2022-08-17T13:46:52.523Z,33.20
2022-08-17T13:52:00.401Z,33.20
2022-08-17T13:57:22.037Z,32.80
2022-08-17T14:02:28.279Z,32.10
2022-08-17T14:07:36.502Z,31.90
2022-08-17T14:12:41.441Z,32.00
2022-08-17T14:17:44.689Z,32.20
2022-08-17T14:22:50.961Z,32.90
2022-08-17T14:27:55.061Z,33.00
2022-08-17T14:32:59.917Z,33.10
2022-08-17T14:38:02.960Z,33.20
2022-08-17T14:43:06.186Z,33.10
2022-08-17T14:48:09.582Z,33.00
2022-08-17T14:53:15.374Z,33.00
2022-08-17T14:58:19.209Z,33.00
2022-08-17T15:03:23.430Z,33.00
2022-08-17T15:08:28.685Z,32.90
2022-08-17T15:13:32.185Z,32.70
2022-08-17T15:18:37.054Z,32.80
2022-08-17T15:23:40.482Z,33.20
2022-08-17T15:28:48.984Z,33.10
2022-08-17T15:33:58.977Z,33.00
2022-08-17T15:39:02.282Z,33.10
2022-08-17T15:44:06.052Z,32.90
2022-08-17T15:49:09.344Z,33.10
2022-08-17T15:54:19.188Z,33.30
2022-08-17T15:59:26.306Z,33.40
2022-08-17T16:04:30.863Z,33.20
2022-08-17T16:09:34.970Z,32.80
2022-08-17T16:14:38.281Z,32.30
2022-08-17T16:19:42.291Z,31.70
2022-08-17T16:24:56.800Z,31.20
2022-08-17T16:30:01.563Z,30.80
2022-08-17T16:35:11.944Z,30.40
2022-08-17T16:40:17.547Z,30.20
2022-08-17T16:45:28.770Z,30.00
2022-08-17T16:50:33.181Z,29.70
2022-08-17T16:55:36.862Z,29.50
2022-08-17T17:00:40.386Z,29.30
2022-08-17T17:06:16.757Z,29.00
2022-08-17T17:11:39.801Z,28.90
2022-08-17T17:16:51.941Z,28.70
2022-08-17T17:22:22.669Z,28.50
2022-08-17T17:28:08.501Z,28.30
2022-08-17T17:33:23.201Z,28.10
2022-08-17T17:38:32.461Z,27.90
2022-08-17T17:43:40.244Z,27.80
2022-08-17T17:48:44.310Z,27.70
2022-08-17T17:54:07.841Z,27.50
2022-08-17T17:59:33.541Z,27.30
2022-08-17T18:04:51.401Z,27.10
2022-08-17T18:10:32.526Z,26.90
2022-08-17T18:15:54.414Z,26.80
2022-08-17T18:21:05.781Z,26.70
2022-08-17T18:26:09.065Z,26.60
2022-08-17T18:31:20.381Z,26.40
2022-08-17T18:36:32.841Z,26.20
2022-08-17T18:41:41.943Z,26.00
2022-08-17T18:46:45.041Z,25.80
2022-08-17T18:51:51.601Z,25.70
2022-08-17T18:57:04.191Z,25.50
2022-08-17T19:07:41.667Z,25.20
2022-08-17T19:13:00.869Z,25.00
2022-08-17T19:18:30.101Z,24.90
2022-08-17T19:23:54.187Z,24.60
2022-08-17T19:29:10.322Z,24.50
2022-08-17T19:34:16.661Z,24.30
2022-08-17T19:39:47.284Z,24.20
2022-08-17T19:45:23.288Z,24.10
2022-08-17T19:51:09.746Z,24.00
2022-08-17T19:56:24.427Z,23.90
2022-08-17T20:08:15.694Z,23.50
2022-08-17T20:13:33.282Z,23.30
2022-08-17T20:24:56.137Z,23.10
2022-08-17T20:30:49.200Z,23.10
2022-08-17T20:36:20.993Z,23.00
2022-08-17T20:41:30.391Z,22.90
2022-08-17T20:46:39.597Z,22.80
2022-08-17T20:52:21.057Z,22.70
2022-08-17T20:57:33.641Z,22.60
2022-08-17T21:02:37.453Z,22.50
2022-08-17T21:07:53.881Z,22.50
2022-08-17T21:13:08.786Z,22.40
2022-08-17T21:18:26.970Z,22.40
2022-08-17T21:24:08.105Z,22.40
2022-08-17T21:29:32.339Z,22.40
2022-08-17T21:34:36.457Z,22.30
2022-08-17T21:39:42.206Z,22.30
2022-08-17T21:44:50.955Z,22.20
2022-08-17T21:49:59.012Z,22.20
2022-08-17T21:55:03.715Z,22.20
2022-08-17T22:00:17.501Z,22.10
2022-08-17T22:05:30.285Z,22.10
2022-08-17T22:10:46.594Z,22.10
2022-08-17T22:16:27.810Z,22.10
2022-08-17T22:21:34.615Z,22.10
2022-08-17T22:27:04.374Z,22.00
2022-08-17T22:32:07.601Z,21.90
2022-08-17T22:37:32.092Z,21.90
2022-08-17T22:42:46.680Z,21.90
2022-08-17T22:47:55.203Z,21.80
2022-08-17T22:53:23.159Z,21.70
2022-08-17T22:58:58.854Z,21.70
2022-08-17T23:04:30.417Z,21.60
2022-08-17T23:09:34.277Z,21.60
2022-08-17T23:14:41.519Z,21.50
2022-08-17T23:19:45.637Z,21.50
2022-08-17T23:24:51.637Z,21.50
2022-08-17T23:29:56.884Z,21.40
2022-08-17T23:35:04.652Z,21.40
2022-08-17T23:40:33.962Z,21.40
2022-08-17T23:45:39.309Z,21.30
2022-08-17T23:50:43.056Z,21.20
2022-08-17T23:55:47.257Z,21.20
